sensor_id;sensor_type;location;lat;lon;timestamp;P1;durP1;ratioP1;P2;durP2;ratioP2
18499;SDS011;9379;52.134;11.576;2024-02-28T00:01:15;9.20;;;8.30;;
18499;SDS011;9379;52.134;11.576;2024-02-28T00:03:42;10.02;;;8.65;;
18499;SDS011;9379;52.134;11.576;2024-02-28T00:06:09;9.50;;;8.02;;
18499;SDS011;9379;52.134;11.576;2024-02-28T00:08:36;10.95;;;9.85;;
18499;SDS011;9379;52.134;11.576;2024-02-28T00:11:03;8.15;;;7.32;;
18499;SDS011;9379;52.134;11.576;2024-02-28T00:13:30;7.13;;;6.43;;
18499;SDS011;9379;52.134;11.576;2024-02-28T00:15:57;8.82;;;7.93;;
18499;SDS011;9379;52.134;11.576;2024-02-28T00:18:25;13.27;;;8.90;;
18499;SDS011;9379;52.134;11.576;2024-02-28T00:20:52;9.80;;;8.77;;
18499;SDS011;9379;52.134;11.576;2024-02-28T00:23:19;9.40;;;8.27;;
18499;SDS011;9379;52.134;11.576;2024-02-28T00:25:46;14.57;;;8.93;;
18499;SDS011;9379;52.134;11.576;2024-02-28T00:28:13;10.85;;;9.25;;
18499;SDS011;9379;52.134;11.576;2024-02-28T00:30:39;12.20;;;9.52;;
18499;SDS011;9379;52.134;11.576;2024-02-28T00:33:06;9.75;;;8.80;;
18499;SDS011;9379;52.134;11.576;2024-02-28T00:35:35;11.90;;;8.43;;
18499;SDS011;9379;52.134;11.576;2024-02-28T00:38:02;8.45;;;6.22;;
18499;SDS011;9379;52.134;11.576;2024-02-28T00:40:29;9.90;;;8.10;;
18499;SDS011;9379;52.134;11.576;2024-02-28T00:42:56;12.55;;;7.65;;
18499;SDS011;9379;52.134;11.576;2024-02-28T00:45:23;8.45;;;7.35;;
18499;SDS011;9379;52.134;11.576;2024-02-28T00:47:50;9.63;;;8.68;;
18499;SDS011;9379;52.134;11.576;2024-02-28T00:50:17;9.32;;;8.48;;
18499;SDS011;9379;52.134;11.576;2024-02-28T00:52:45;9.57;;;8.13;;
18499;SDS011;9379;52.134;11.576;2024-02-28T00:55:12;8.07;;;7.28;;
18499;SDS011;9379;52.134;11.576;2024-02-28T00:57:39;9.13;;;7.35;;
18499;SDS011;9379;52.134;11.576;2024-02-28T01:00:06;10.02;;;8.30;;
18499;SDS011;9379;52.134;11.576;2024-02-28T01:02:35;11.13;;;9.73;;
18499;SDS011;9379;52.134;11.576;2024-02-28T01:05:01;9.18;;;7.45;;
18499;SDS011;9379;52.134;11.576;2024-02-28T01:07:28;7.45;;;6.75;;
18499;SDS011;9379;52.134;11.576;2024-02-28T01:09:57;7.80;;;7.00;;
18499;SDS011;9379;52.134;11.576;2024-02-28T01:12:24;8.07;;;7.03;;
18499;SDS011;9379;52.134;11.576;2024-02-28T01:14:51;10.45;;;8.93;;
18499;SDS011;9379;52.134;11.576;2024-02-28T01:17:17;8.45;;;7.55;;
18499;SDS011;9379;52.134;11.576;2024-02-28T01:19:44;9.32;;;8.27;;
18499;SDS011;9379;52.134;11.576;2024-02-28T01:22:11;9.25;;;7.20;;
18499;SDS011;9379;52.134;11.576;2024-02-28T01:24:38;12.02;;;8.77;;
18499;SDS011;9379;52.134;11.576;2024-02-28T01:27:14;10.90;;;9.43;;
18499;SDS011;9379;52.134;11.576;2024-02-28T01:29:41;11.23;;;8.13;;
18499;SDS011;9379;52.134;11.576;2024-02-28T01:32:08;8.48;;;6.88;;
18499;SDS011;9379;52.134;11.576;2024-02-28T01:34:35;7.88;;;6.72;;
18499;SDS011;9379;52.134;11.576;2024-02-28T01:37:02;9.55;;;8.60;;
18499;SDS011;9379;52.134;11.576;2024-02-28T01:39:29;8.98;;;6.60;;
18499;SDS011;9379;52.134;11.576;2024-02-28T01:41:56;8.95;;;7.22;;
18499;SDS011;9379;52.134;11.576;2024-02-28T01:44:24;11.40;;;6.43;;
18499;SDS011;9379;52.134;11.576;2024-02-28T01:46:51;7.65;;;7.05;;
18499;SDS011;9379;52.134;11.576;2024-02-28T01:49:20;7.35;;;6.65;;
18499;SDS011;9379;52.134;11.576;2024-02-28T01:51:46;8.75;;;7.95;;
18499;SDS011;9379;52.134;11.576;2024-02-28T01:54:14;7.85;;;7.03;;
18499;SDS011;9379;52.134;11.576;2024-02-28T01:56:41;8.27;;;7.40;;
18499;SDS011;9379;52.134;11.576;2024-02-28T01:59:09;8.35;;;6.75;;
18499;SDS011;9379;52.134;11.576;2024-02-28T02:01:38;10.00;;;6.70;;
18499;SDS011;9379;52.134;11.576;2024-02-28T02:04:05;9.63;;;7.38;;
18499;SDS011;9379;52.134;11.576;2024-02-28T02:06:32;9.02;;;8.07;;
18499;SDS011;9379;52.134;11.576;2024-02-28T02:09:03;9.23;;;8.07;;
18499;SDS011;9379;52.134;11.576;2024-02-28T02:11:30;12.93;;;10.95;;
18499;SDS011;9379;52.134;11.576;2024-02-28T02:13:57;10.57;;;8.05;;
18499;SDS011;9379;52.134;11.576;2024-02-28T02:16:24;7.72;;;6.68;;
18499;SDS011;9379;52.134;11.576;2024-02-28T02:18:53;8.43;;;7.60;;
18499;SDS011;9379;52.134;11.576;2024-02-28T02:21:20;9.77;;;7.15;;
18499;SDS011;9379;52.134;11.576;2024-02-28T02:23:51;8.25;;;6.30;;
18499;SDS011;9379;52.134;11.576;2024-02-28T02:26:18;9.18;;;7.25;;
18499;SDS011;9379;52.134;11.576;2024-02-28T02:28:44;9.70;;;7.82;;
18499;SDS011;9379;52.134;11.576;2024-02-28T02:31:12;8.85;;;7.97;;
18499;SDS011;9379;52.134;11.576;2024-02-28T02:33:39;6.88;;;5.82;;
18499;SDS011;9379;52.134;11.576;2024-02-28T02:36:06;10.35;;;7.30;;
18499;SDS011;9379;52.134;11.576;2024-02-28T02:38:33;8.80;;;7.78;;
18499;SDS011;9379;52.134;11.576;2024-02-28T02:41:01;9.07;;;6.70;;
18499;SDS011;9379;52.134;11.576;2024-02-28T02:43:28;12.57;;;8.23;;
18499;SDS011;9379;52.134;11.576;2024-02-28T02:45:55;10.32;;;7.13;;
18499;SDS011;9379;52.134;11.576;2024-02-28T02:48:21;7.07;;;6.38;;
18499;SDS011;9379;52.134;11.576;2024-02-28T02:50:48;7.90;;;7.20;;
18499;SDS011;9379;52.134;11.576;2024-02-28T02:53:15;7.20;;;6.25;;
18499;SDS011;9379;52.134;11.576;2024-02-28T02:55:42;7.25;;;5.95;;
18499;SDS011;9379;52.134;11.576;2024-02-28T02:58:10;7.88;;;6.72;;
18499;SDS011;9379;52.134;11.576;2024-02-28T03:00:37;5.63;;;5.13;;
18499;SDS011;9379;52.134;11.576;2024-02-28T03:03:04;7.65;;;5.95;;
18499;SDS011;9379;52.134;11.576;2024-02-28T03:05:32;7.72;;;6.85;;
18499;SDS011;9379;52.134;11.576;2024-02-28T03:07:58;7.25;;;6.03;;
18499;SDS011;9379;52.134;11.576;2024-02-28T03:10:25;8.00;;;6.65;;
18499;SDS011;9379;52.134;11.576;2024-02-28T03:12:52;6.55;;;5.80;;
18499;SDS011;9379;52.134;11.576;2024-02-28T03:15:20;7.13;;;6.25;;
18499;SDS011;9379;52.134;11.576;2024-02-28T03:17:47;9.10;;;5.50;;
18499;SDS011;9379;52.134;11.576;2024-02-28T03:20:14;6.72;;;5.80;;
18499;SDS011;9379;52.134;11.576;2024-02-28T03:22:41;6.72;;;6.13;;
18499;SDS011;9379;52.134;11.576;2024-02-28T03:25:08;8.18;;;7.20;;
18499;SDS011;9379;52.134;11.576;2024-02-28T03:27:35;6.88;;;6.13;;
18499;SDS011;9379;52.134;11.576;2024-02-28T03:30:02;7.22;;;5.60;;
18499;SDS011;9379;52.134;11.576;2024-02-28T03:32:31;6.38;;;5.10;;
18499;SDS011;9379;52.134;11.576;2024-02-28T03:34:59;8.77;;;7.00;;
18499;SDS011;9379;52.134;11.576;2024-02-28T03:37:26;5.22;;;4.72;;
18499;SDS011;9379;52.134;11.576;2024-02-28T03:39:53;5.57;;;5.03;;
18499;SDS011;9379;52.134;11.576;2024-02-28T03:42:19;11.00;;;7.95;;
18499;SDS011;9379;52.134;11.576;2024-02-28T03:44:46;8.38;;;7.47;;
18499;SDS011;9379;52.134;11.576;2024-02-28T03:47:13;8.60;;;6.80;;
18499;SDS011;9379;52.134;11.576;2024-02-28T03:49:41;10.23;;;8.30;;
18499;SDS011;9379;52.134;11.576;2024-02-28T03:52:08;8.07;;;5.95;;
18499;SDS011;9379;52.134;11.576;2024-02-28T03:54:35;6.70;;;6.05;;
18499;SDS011;9379;52.134;11.576;2024-02-28T03:57:02;7.50;;;5.95;;
18499;SDS011;9379;52.134;11.576;2024-02-28T03:59:29;9.60;;;7.00;;
18499;SDS011;9379;52.134;11.576;2024-02-28T04:01:56;8.50;;;7.22;;
18499;SDS011;9379;52.134;11.576;2024-02-28T04:04:22;10.05;;;7.75;;
18499;SDS011;9379;52.134;11.576;2024-02-28T04:06:51;7.13;;;6.43;;
18499;SDS011;9379;52.134;11.576;2024-02-28T04:09:18;7.40;;;6.70;;
18499;SDS011;9379;52.134;11.576;2024-02-28T04:11:47;8.27;;;7.43;;
18499;SDS011;9379;52.134;11.576;2024-02-28T04:14:14;10.13;;;8.15;;
18499;SDS011;9379;52.134;11.576;2024-02-28T04:16:41;10.32;;;7.35;;
18499;SDS011;9379;52.134;11.576;2024-02-28T04:19:09;7.70;;;5.90;;
18499;SDS011;9379;52.134;11.576;2024-02-28T04:21:37;7.82;;;7.03;;
18499;SDS011;9379;52.134;11.576;2024-02-28T04:24:05;8.68;;;7.50;;
18499;SDS011;9379;52.134;11.576;2024-02-28T04:26:32;7.28;;;6.07;;
18499;SDS011;9379;52.134;11.576;2024-02-28T04:29:00;8.45;;;6.50;;
18499;SDS011;9379;52.134;11.576;2024-02-28T04:31:30;7.60;;;6.88;;
18499;SDS011;9379;52.134;11.576;2024-02-28T04:33:56;6.57;;;5.30;;
18499;SDS011;9379;52.134;11.576;2024-02-28T04:36:23;5.65;;;5.15;;
18499;SDS011;9379;52.134;11.576;2024-02-28T04:38:50;6.45;;;5.82;;
18499;SDS011;9379;52.134;11.576;2024-02-28T04:41:18;5.72;;;5.22;;
18499;SDS011;9379;52.134;11.576;2024-02-28T04:43:45;6.20;;;5.32;;
18499;SDS011;9379;52.134;11.576;2024-02-28T04:46:12;7.47;;;6.50;;
18499;SDS011;9379;52.134;11.576;2024-02-28T04:48:39;9.18;;;6.18;;
18499;SDS011;9379;52.134;11.576;2024-02-28T04:51:06;6.32;;;5.82;;
18499;SDS011;9379;52.134;11.576;2024-02-28T04:53:32;6.47;;;5.88;;
18499;SDS011;9379;52.134;11.576;2024-02-28T04:55:59;6.88;;;5.70;;
18499;SDS011;9379;52.134;11.576;2024-02-28T04:58:28;7.20;;;6.25;;
18499;SDS011;9379;52.134;11.576;2024-02-28T05:00:54;8.23;;;6.85;;
18499;SDS011;9379;52.134;11.576;2024-02-28T05:03:21;6.55;;;5.60;;
18499;SDS011;9379;52.134;11.576;2024-02-28T05:05:50;5.80;;;5.30;;
18499;SDS011;9379;52.134;11.576;2024-02-28T05:08:16;5.85;;;5.32;;
18499;SDS011;9379;52.134;11.576;2024-02-28T05:10:44;7.07;;;6.05;;
18499;SDS011;9379;52.134;11.576;2024-02-28T05:13:11;8.07;;;7.32;;
18499;SDS011;9379;52.134;11.576;2024-02-28T05:15:39;10.85;;;6.78;;
18499;SDS011;9379;52.134;11.576;2024-02-28T05:18:06;5.93;;;5.35;;
18499;SDS011;9379;52.134;11.576;2024-02-28T05:20:33;9.57;;;6.72;;
18499;SDS011;9379;52.134;11.576;2024-02-28T05:22:59;8.02;;;6.80;;
18499;SDS011;9379;52.134;11.576;2024-02-28T05:25:26;7.05;;;6.40;;
18499;SDS011;9379;52.134;11.576;2024-02-28T05:27:55;6.90;;;6.05;;
18499;SDS011;9379;52.134;11.576;2024-02-28T05:30:22;8.40;;;7.53;;
18499;SDS011;9379;52.134;11.576;2024-02-28T05:32:50;7.45;;;6.68;;
18499;SDS011;9379;52.134;11.576;2024-02-28T05:35:17;7.78;;;7.05;;
18499;SDS011;9379;52.134;11.576;2024-02-28T05:37:44;8.05;;;7.35;;
18499;SDS011;9379;52.134;11.576;2024-02-28T05:40:12;8.60;;;7.78;;
18499;SDS011;9379;52.134;11.576;2024-02-28T05:42:39;8.65;;;7.85;;
18499;SDS011;9379;52.134;11.576;2024-02-28T05:45:08;8.95;;;7.57;;
18499;SDS011;9379;52.134;11.576;2024-02-28T05:47:35;10.10;;;8.90;;
18499;SDS011;9379;52.134;11.576;2024-02-28T05:50:04;8.45;;;7.30;;
18499;SDS011;9379;52.134;11.576;2024-02-28T05:52:31;8.65;;;7.47;;
18499;SDS011;9379;52.134;11.576;2024-02-28T05:54:58;7.72;;;7.00;;
18499;SDS011;9379;52.134;11.576;2024-02-28T05:57:25;7.32;;;6.60;;
18499;SDS011;9379;52.134;11.576;2024-02-28T05:59:52;12.13;;;6.43;;
18499;SDS011;9379;52.134;11.576;2024-02-28T06:02:19;7.65;;;6.95;;
18499;SDS011;9379;52.134;11.576;2024-02-28T06:04:46;7.22;;;6.50;;
18499;SDS011;9379;52.134;11.576;2024-02-28T06:07:14;7.20;;;6.47;;
18499;SDS011;9379;52.134;11.576;2024-02-28T06:09:41;10.25;;;7.88;;
18499;SDS011;9379;52.134;11.576;2024-02-28T06:12:08;6.07;;;5.50;;
18499;SDS011;9379;52.134;11.576;2024-02-28T06:14:35;12.05;;;10.95;;
18499;SDS011;9379;52.134;11.576;2024-02-28T06:17:02;13.15;;;9.75;;
18499;SDS011;9379;52.134;11.576;2024-02-28T06:19:29;9.07;;;8.15;;
18499;SDS011;9379;52.134;11.576;2024-02-28T06:21:56;8.75;;;7.88;;
18499;SDS011;9379;52.134;11.576;2024-02-28T06:24:24;6.97;;;6.32;;
18499;SDS011;9379;52.134;11.576;2024-02-28T06:26:51;8.15;;;7.18;;
18499;SDS011;9379;52.134;11.576;2024-02-28T06:29:18;6.35;;;5.68;;
18499;SDS011;9379;52.134;11.576;2024-02-28T06:31:49;6.72;;;6.15;;
18499;SDS011;9379;52.134;11.576;2024-02-28T06:34:16;7.10;;;6.40;;
18499;SDS011;9379;52.134;11.576;2024-02-28T06:36:43;7.75;;;6.85;;
18499;SDS011;9379;52.134;11.576;2024-02-28T06:39:10;5.82;;;5.30;;
18499;SDS011;9379;52.134;11.576;2024-02-28T06:41:39;7.13;;;5.60;;
18499;SDS011;9379;52.134;11.576;2024-02-28T06:44:06;5.65;;;5.13;;
18499;SDS011;9379;52.134;11.576;2024-02-28T06:46:33;6.82;;;5.78;;
18499;SDS011;9379;52.134;11.576;2024-02-28T06:49:00;5.93;;;5.38;;
18499;SDS011;9379;52.134;11.576;2024-02-28T06:51:27;4.97;;;4.55;;
18499;SDS011;9379;52.134;11.576;2024-02-28T06:53:54;5.95;;;4.65;;
18499;SDS011;9379;52.134;11.576;2024-02-28T06:56:21;7.38;;;6.43;;
18499;SDS011;9379;52.134;11.576;2024-02-28T06:58:49;6.82;;;5.70;;
18499;SDS011;9379;52.134;11.576;2024-02-28T07:01:17;7.15;;;6.45;;
18499;SDS011;9379;52.134;11.576;2024-02-28T07:03:44;5.57;;;5.07;;
18499;SDS011;9379;52.134;11.576;2024-02-28T07:06:11;6.20;;;5.55;;
18499;SDS011;9379;52.134;11.576;2024-02-28T07:08:37;4.95;;;4.45;;
18499;SDS011;9379;52.134;11.576;2024-02-28T07:11:04;7.38;;;5.85;;
18499;SDS011;9379;52.134;11.576;2024-02-28T07:13:31;6.22;;;5.60;;
18499;SDS011;9379;52.134;11.576;2024-02-28T07:16:00;5.30;;;4.80;;
18499;SDS011;9379;52.134;11.576;2024-02-28T07:18:26;5.82;;;5.03;;
18499;SDS011;9379;52.134;11.576;2024-02-28T07:20:54;6.47;;;5.88;;
18499;SDS011;9379;52.134;11.576;2024-02-28T07:23:21;7.60;;;5.65;;
18499;SDS011;9379;52.134;11.576;2024-02-28T07:25:48;7.13;;;5.95;;
18499;SDS011;9379;52.134;11.576;2024-02-28T07:28:15;5.80;;;5.30;;
18499;SDS011;9379;52.134;11.576;2024-02-28T07:30:42;7.00;;;5.95;;
18499;SDS011;9379;52.134;11.576;2024-02-28T07:33:12;5.03;;;4.60;;
18499;SDS011;9379;52.134;11.576;2024-02-28T07:35:46;5.43;;;4.90;;
18499;SDS011;9379;52.134;11.576;2024-02-28T07:38:13;7.05;;;6.45;;
18499;SDS011;9379;52.134;11.576;2024-02-28T07:40:41;12.30;;;7.28;;
18499;SDS011;9379;52.134;11.576;2024-02-28T07:43:08;7.25;;;6.50;;
18499;SDS011;9379;52.134;11.576;2024-02-28T07:45:35;7.75;;;6.90;;
18499;SDS011;9379;52.134;11.576;2024-02-28T07:48:02;9.77;;;8.65;;
18499;SDS011;9379;52.134;11.576;2024-02-28T07:50:30;9.45;;;8.43;;
18499;SDS011;9379;52.134;11.576;2024-02-28T07:52:57;6.38;;;5.88;;
18499;SDS011;9379;52.134;11.576;2024-02-28T07:55:24;8.20;;;7.40;;
18499;SDS011;9379;52.134;11.576;2024-02-28T07:57:51;8.20;;;7.03;;
18499;SDS011;9379;52.134;11.576;2024-02-28T08:00:18;10.05;;;9.05;;
18499;SDS011;9379;52.134;11.576;2024-02-28T08:02:46;9.60;;;8.65;;
18499;SDS011;9379;52.134;11.576;2024-02-28T08:05:13;11.80;;;9.50;;
18499;SDS011;9379;52.134;11.576;2024-02-28T08:07:42;10.32;;;9.27;;
18499;SDS011;9379;52.134;11.576;2024-02-28T08:10:09;11.05;;;9.95;;
18499;SDS011;9379;52.134;11.576;2024-02-28T08:12:37;9.27;;;8.30;;
18499;SDS011;9379;52.134;11.576;2024-02-28T08:15:04;9.15;;;8.35;;
18499;SDS011;9379;52.134;11.576;2024-02-28T08:17:31;7.55;;;6.82;;
18499;SDS011;9379;52.134;11.576;2024-02-28T08:19:58;15.13;;;8.95;;
18499;SDS011;9379;52.134;11.576;2024-02-28T08:22:25;12.95;;;9.75;;
18499;SDS011;9379;52.134;11.576;2024-02-28T08:24:54;8.70;;;7.90;;
18499;SDS011;9379;52.134;11.576;2024-02-28T08:27:21;9.93;;;8.45;;
18499;SDS011;9379;52.134;11.576;2024-02-28T08:29:48;11.93;;;10.35;;
18499;SDS011;9379;52.134;11.576;2024-02-28T08:32:15;12.65;;;11.43;;
18499;SDS011;9379;52.134;11.576;2024-02-28T08:34:43;12.27;;;10.63;;
18499;SDS011;9379;52.134;11.576;2024-02-28T08:37:11;10.10;;;9.07;;
18499;SDS011;9379;52.134;11.576;2024-02-28T08:39:38;11.07;;;9.68;;
18499;SDS011;9379;52.134;11.576;2024-02-28T08:42:06;11.52;;;9.60;;
18499;SDS011;9379;52.134;11.576;2024-02-28T08:44:33;9.95;;;8.88;;
18499;SDS011;9379;52.134;11.576;2024-02-28T08:47:00;10.90;;;8.88;;
18499;SDS011;9379;52.134;11.576;2024-02-28T08:49:27;10.43;;;9.43;;
18499;SDS011;9379;52.134;11.576;2024-02-28T08:51:56;11.30;;;9.60;;
18499;SDS011;9379;52.134;11.576;2024-02-28T08:54:22;8.88;;;7.97;;
18499;SDS011;9379;52.134;11.576;2024-02-28T08:56:51;14.82;;;13.38;;
18499;SDS011;9379;52.134;11.576;2024-02-28T08:59:19;12.30;;;10.70;;
18499;SDS011;9379;52.134;11.576;2024-02-28T09:01:47;11.43;;;8.98;;
18499;SDS011;9379;52.134;11.576;2024-02-28T09:04:14;11.20;;;10.00;;
18499;SDS011;9379;52.134;11.576;2024-02-28T09:06:41;11.85;;;10.35;;
18499;SDS011;9379;52.134;11.576;2024-02-28T09:09:07;17.25;;;9.40;;
18499;SDS011;9379;52.134;11.576;2024-02-28T09:11:35;13.13;;;11.82;;
18499;SDS011;9379;52.134;11.576;2024-02-28T09:14:02;13.52;;;11.45;;
18499;SDS011;9379;52.134;11.576;2024-02-28T09:16:31;11.32;;;10.00;;
18499;SDS011;9379;52.134;11.576;2024-02-28T09:18:58;15.25;;;12.07;;
18499;SDS011;9379;52.134;11.576;2024-02-28T09:21:25;14.30;;;12.10;;
18499;SDS011;9379;52.134;11.576;2024-02-28T09:23:52;15.25;;;12.55;;
18499;SDS011;9379;52.134;11.576;2024-02-28T09:26:19;10.10;;;9.00;;
18499;SDS011;9379;52.134;11.576;2024-02-28T09:28:49;12.38;;;11.07;;
18499;SDS011;9379;52.134;11.576;2024-02-28T09:31:17;11.57;;;10.38;;
18499;SDS011;9379;52.134;11.576;2024-02-28T09:33:46;10.88;;;9.73;;
18499;SDS011;9379;52.134;11.576;2024-02-28T09:36:14;13.63;;;12.27;;
18499;SDS011;9379;52.134;11.576;2024-02-28T09:38:41;16.42;;;13.23;;
18499;SDS011;9379;52.134;11.576;2024-02-28T09:41:07;15.02;;;13.40;;
18499;SDS011;9379;52.134;11.576;2024-02-28T09:43:40;14.88;;;12.93;;
18499;SDS011;9379;52.134;11.576;2024-02-28T09:46:08;20.90;;;15.20;;
18499;SDS011;9379;52.134;11.576;2024-02-28T09:48:38;16.50;;;12.13;;
18499;SDS011;9379;52.134;11.576;2024-02-28T09:51:07;16.30;;;14.45;;
18499;SDS011;9379;52.134;11.576;2024-02-28T09:53:35;15.07;;;10.35;;
18499;SDS011;9379;52.134;11.576;2024-02-28T09:56:03;21.45;;;15.10;;
18499;SDS011;9379;52.134;11.576;2024-02-28T09:58:32;19.75;;;14.98;;
18499;SDS011;9379;52.134;11.576;2024-02-28T10:01:03;20.63;;;13.88;;
18499;SDS011;9379;52.134;11.576;2024-02-28T10:03:34;14.60;;;11.52;;
18499;SDS011;9379;52.134;11.576;2024-02-28T10:06:04;15.15;;;11.45;;
18499;SDS011;9379;52.134;11.576;2024-02-28T10:08:32;15.25;;;13.23;;
18499;SDS011;9379;52.134;11.576;2024-02-28T10:11:00;12.95;;;11.25;;
18499;SDS011;9379;52.134;11.576;2024-02-28T10:13:27;12.93;;;10.18;;
18499;SDS011;9379;52.134;11.576;2024-02-28T10:15:54;14.40;;;12.30;;
18499;SDS011;9379;52.134;11.576;2024-02-28T10:18:21;14.60;;;12.15;;
18499;SDS011;9379;52.134;11.576;2024-02-28T10:20:48;13.18;;;10.43;;
18499;SDS011;9379;52.134;11.576;2024-02-28T10:23:15;12.43;;;9.98;;
18499;SDS011;9379;52.134;11.576;2024-02-28T10:25:44;13.88;;;11.55;;
18499;SDS011;9379;52.134;11.576;2024-02-28T10:28:12;11.75;;;9.82;;
18499;SDS011;9379;52.134;11.576;2024-02-28T10:30:40;17.67;;;14.88;;
18499;SDS011;9379;52.134;11.576;2024-02-28T10:33:11;14.48;;;12.52;;
18499;SDS011;9379;52.134;11.576;2024-02-28T10:35:39;13.30;;;11.82;;
18499;SDS011;9379;52.134;11.576;2024-02-28T10:38:07;11.38;;;10.18;;
18499;SDS011;9379;52.134;11.576;2024-02-28T10:40:36;13.90;;;10.25;;
18499;SDS011;9379;52.134;11.576;2024-02-28T10:43:05;13.40;;;10.40;;
18499;SDS011;9379;52.134;11.576;2024-02-28T10:45:35;13.85;;;10.45;;
18499;SDS011;9379;52.134;11.576;2024-02-28T10:48:03;19.00;;;14.20;;
18499;SDS011;9379;52.134;11.576;2024-02-28T10:50:31;16.75;;;13.40;;
18499;SDS011;9379;52.134;11.576;2024-02-28T10:52:59;15.30;;;13.10;;
18499;SDS011;9379;52.134;11.576;2024-02-28T10:55:30;14.70;;;10.50;;
18499;SDS011;9379;52.134;11.576;2024-02-28T10:58:01;10.77;;;9.32;;
18499;SDS011;9379;52.134;11.576;2024-02-28T11:00:31;12.60;;;11.13;;
18499;SDS011;9379;52.134;11.576;2024-02-28T11:02:59;10.02;;;8.65;;
18499;SDS011;9379;52.134;11.576;2024-02-28T11:05:35;10.13;;;8.18;;
18499;SDS011;9379;52.134;11.576;2024-02-28T11:08:04;14.93;;;9.95;;
18499;SDS011;9379;52.134;11.576;2024-02-28T11:10:31;12.48;;;9.98;;
18499;SDS011;9379;52.134;11.576;2024-02-28T11:12:59;9.65;;;8.57;;
18499;SDS011;9379;52.134;11.576;2024-02-28T11:15:26;12.30;;;10.85;;
18499;SDS011;9379;52.134;11.576;2024-02-28T11:17:55;13.88;;;12.00;;
18499;SDS011;9379;52.134;11.576;2024-02-28T11:20:33;16.33;;;12.00;;
18499;SDS011;9379;52.134;11.576;2024-02-28T11:23:00;16.70;;;13.63;;
18499;SDS011;9379;52.134;11.576;2024-02-28T11:25:27;14.68;;;11.13;;
18499;SDS011;9379;52.134;11.576;2024-02-28T11:27:54;11.80;;;10.60;;
18499;SDS011;9379;52.134;11.576;2024-02-28T11:30:21;12.07;;;10.70;;
18499;SDS011;9379;52.134;11.576;2024-02-28T11:32:48;15.88;;;10.25;;
18499;SDS011;9379;52.134;11.576;2024-02-28T11:35:19;12.98;;;8.95;;
18499;SDS011;9379;52.134;11.576;2024-02-28T11:37:46;13.60;;;11.07;;
18499;SDS011;9379;52.134;11.576;2024-02-28T11:40:15;11.75;;;10.55;;
18499;SDS011;9379;52.134;11.576;2024-02-28T11:42:42;10.55;;;8.88;;
18499;SDS011;9379;52.134;11.576;2024-02-28T11:45:09;12.52;;;10.07;;
18499;SDS011;9379;52.134;11.576;2024-02-28T11:47:36;13.65;;;9.98;;
18499;SDS011;9379;52.134;11.576;2024-02-28T11:50:03;11.65;;;9.70;;
18499;SDS011;9379;52.134;11.576;2024-02-28T11:52:33;10.65;;;9.65;;
18499;SDS011;9379;52.134;11.576;2024-02-28T11:55:00;13.00;;;11.13;;
18499;SDS011;9379;52.134;11.576;2024-02-28T11:57:27;15.30;;;11.00;;
18499;SDS011;9379;52.134;11.576;2024-02-28T12:00:01;13.10;;;10.98;;
18499;SDS011;9379;52.134;11.576;2024-02-28T12:02:29;14.45;;;11.40;;
18499;SDS011;9379;52.134;11.576;2024-02-28T12:05:00;12.13;;;9.82;;
18499;SDS011;9379;52.134;11.576;2024-02-28T12:07:27;14.73;;;12.98;;
18499;SDS011;9379;52.134;11.576;2024-02-28T12:09:55;17.73;;;15.85;;
18499;SDS011;9379;52.134;11.576;2024-02-28T12:12:22;13.55;;;11.60;;
18499;SDS011;9379;52.134;11.576;2024-02-28T12:14:50;13.65;;;10.40;;
18499;SDS011;9379;52.134;11.576;2024-02-28T12:17:17;13.05;;;10.50;;
18499;SDS011;9379;52.134;11.576;2024-02-28T12:19:44;12.32;;;10.25;;
18499;SDS011;9379;52.134;11.576;2024-02-28T12:22:11;12.25;;;10.07;;
18499;SDS011;9379;52.134;11.576;2024-02-28T12:24:38;11.73;;;10.35;;
18499;SDS011;9379;52.134;11.576;2024-02-28T12:27:06;22.95;;;14.80;;
18499;SDS011;9379;52.134;11.576;2024-02-28T12:29:33;13.30;;;10.43;;
18499;SDS011;9379;52.134;11.576;2024-02-28T12:32:00;20.70;;;13.43;;
18499;SDS011;9379;52.134;11.576;2024-02-28T12:34:27;13.23;;;9.30;;
18499;SDS011;9379;52.134;11.576;2024-02-28T12:36:54;13.15;;;10.32;;
18499;SDS011;9379;52.134;11.576;2024-02-28T12:39:20;9.15;;;8.23;;
18499;SDS011;9379;52.134;11.576;2024-02-28T12:41:47;13.25;;;11.45;;
18499;SDS011;9379;52.134;11.576;2024-02-28T12:44:16;13.50;;;10.23;;
18499;SDS011;9379;52.134;11.576;2024-02-28T12:46:43;10.75;;;9.68;;
18499;SDS011;9379;52.134;11.576;2024-02-28T12:49:10;11.25;;;9.60;;
18499;SDS011;9379;52.134;11.576;2024-02-28T12:51:37;16.15;;;13.65;;
18499;SDS011;9379;52.134;11.576;2024-02-28T12:54:06;16.45;;;13.20;;
18499;SDS011;9379;52.134;11.576;2024-02-28T12:56:34;14.77;;;11.80;;
18499;SDS011;9379;52.134;11.576;2024-02-28T12:59:01;17.00;;;13.48;;
18499;SDS011;9379;52.134;11.576;2024-02-28T13:01:29;13.00;;;10.95;;
18499;SDS011;9379;52.134;11.576;2024-02-28T13:03:57;14.27;;;11.63;;
18499;SDS011;9379;52.134;11.576;2024-02-28T13:06:24;15.38;;;11.57;;
18499;SDS011;9379;52.134;11.576;2024-02-28T13:08:51;13.65;;;11.02;;
18499;SDS011;9379;52.134;11.576;2024-02-28T13:11:18;9.63;;;8.15;;
18499;SDS011;9379;52.134;11.576;2024-02-28T13:13:46;18.15;;;14.13;;
18499;SDS011;9379;52.134;11.576;2024-02-28T13:16:13;13.63;;;9.77;;
18499;SDS011;9379;52.134;11.576;2024-02-28T13:18:41;10.93;;;9.07;;
18499;SDS011;9379;52.134;11.576;2024-02-28T13:21:08;14.00;;;11.55;;
18499;SDS011;9379;52.134;11.576;2024-02-28T13:23:35;11.32;;;9.50;;
18499;SDS011;9379;52.134;11.576;2024-02-28T13:26:03;13.23;;;11.23;;
18499;SDS011;9379;52.134;11.576;2024-02-28T13:28:32;12.18;;;10.88;;
18499;SDS011;9379;52.134;11.576;2024-02-28T13:31:02;10.98;;;9.50;;
18499;SDS011;9379;52.134;11.576;2024-02-28T13:33:30;13.45;;;11.15;;
18499;SDS011;9379;52.134;11.576;2024-02-28T13:35:58;17.55;;;11.65;;
18499;SDS011;9379;52.134;11.576;2024-02-28T13:38:25;11.60;;;9.55;;
18499;SDS011;9379;52.134;11.576;2024-02-28T13:40:52;10.65;;;9.52;;
18499;SDS011;9379;52.134;11.576;2024-02-28T13:43:19;16.25;;;12.82;;
18499;SDS011;9379;52.134;11.576;2024-02-28T13:45:46;17.17;;;12.65;;
18499;SDS011;9379;52.134;11.576;2024-02-28T13:48:15;18.48;;;15.27;;
18499;SDS011;9379;52.134;11.576;2024-02-28T13:50:43;17.67;;;13.82;;
18499;SDS011;9379;52.134;11.576;2024-02-28T13:53:12;18.65;;;14.95;;
18499;SDS011;9379;52.134;11.576;2024-02-28T13:55:40;23.85;;;17.77;;
18499;SDS011;9379;52.134;11.576;2024-02-28T13:58:07;19.10;;;15.07;;
18499;SDS011;9379;52.134;11.576;2024-02-28T14:00:36;19.52;;;12.70;;
18499;SDS011;9379;52.134;11.576;2024-02-28T14:03:03;14.35;;;12.45;;
18499;SDS011;9379;52.134;11.576;2024-02-28T14:05:32;11.48;;;10.23;;
18499;SDS011;9379;52.134;11.576;2024-02-28T14:07:59;13.88;;;12.20;;
18499;SDS011;9379;52.134;11.576;2024-02-28T14:10:30;14.30;;;12.10;;
18499;SDS011;9379;52.134;11.576;2024-02-28T14:12:58;16.70;;;13.45;;
18499;SDS011;9379;52.134;11.576;2024-02-28T14:15:24;22.40;;;14.93;;
18499;SDS011;9379;52.134;11.576;2024-02-28T14:17:51;24.73;;;16.33;;
18499;SDS011;9379;52.134;11.576;2024-02-28T14:20:18;21.48;;;17.35;;
18499;SDS011;9379;52.134;11.576;2024-02-28T14:22:45;20.70;;;13.50;;
18499;SDS011;9379;52.134;11.576;2024-02-28T14:25:13;16.30;;;13.13;;
18499;SDS011;9379;52.134;11.576;2024-02-28T14:27:43;21.77;;;14.52;;
18499;SDS011;9379;52.134;11.576;2024-02-28T14:30:11;21.55;;;15.35;;
18499;SDS011;9379;52.134;11.576;2024-02-28T14:32:39;21.23;;;16.58;;
18499;SDS011;9379;52.134;11.576;2024-02-28T14:35:08;19.10;;;15.07;;
18499;SDS011;9379;52.134;11.576;2024-02-28T14:37:36;19.35;;;13.73;;